createdAt,value
2022-08-03T00:07:29.334Z,18.8
2022-08-03T00:17:29.795Z,18.6
2022-08-03T00:27:32.554Z,18.5
2022-08-03T00:47:31.591Z,18.2
2022-08-03T00:57:32.210Z,18.2
2022-08-03T01:07:33.195Z,18
2022-08-03T01:17:33.309Z,18
2022-08-03T01:27:33.895Z,17.9
2022-08-03T01:47:34.913Z,17.7
2022-08-03T01:57:35.109Z,17.6
2022-08-03T02:07:35.896Z,17.5
2022-08-03T02:17:38.847Z,17.5
2022-08-03T02:27:39.413Z,17.4
2022-08-03T02:37:36.712Z,17.3
2022-08-03T02:47:53.715Z,17.2
2022-08-03T02:57:38.719Z,17.2
2022-08-03T03:07:49.119Z,17.1
2022-08-03T03:37:40.867Z,17
2022-08-03T03:47:41.153Z,16.9
2022-08-03T03:57:41.642Z,16.9
2022-08-03T04:07:42.554Z,16.9
2022-08-03T04:17:43.333Z,16.8
2022-08-03T04:27:44.160Z,16.8
2022-08-03T04:37:44.565Z,16.9
2022-08-03T04:47:44.701Z,17
2022-08-03T04:57:45.730Z,17.2
2022-08-03T05:07:46.788Z,17.4
2022-08-03T05:27:47.119Z,18.3
2022-08-03T05:37:48.394Z,18.9
2022-08-03T05:47:48.232Z,19.8
2022-08-03T06:17:49.659Z,21.3
2022-08-03T06:27:50.589Z,21.7
2022-08-03T06:37:51.373Z,22.6
2022-08-03T06:47:52.179Z,23.1
2022-08-03T06:57:52.484Z,23.4
2022-08-03T07:07:53.389Z,23.8
2022-08-03T07:17:54.392Z,24.1
2022-08-03T07:37:55.367Z,24.9
2022-08-03T07:57:56.684Z,25.6
2022-08-03T08:17:58.065Z,25.5
2022-08-03T08:28:21.905Z,25.8
2022-08-03T08:37:58.738Z,26.2
2022-08-03T08:57:59.551Z,27.3
2022-08-03T09:07:59.915Z,27.6
2022-08-03T09:18:00.045Z,27.8
2022-08-03T09:28:01.107Z,28
2022-08-03T09:38:12.417Z,28.5
2022-08-03T09:48:03.015Z,29.2
2022-08-03T09:58:03.755Z,29
2022-08-03T10:08:03.852Z,29.3
2022-08-03T10:18:04.027Z,29.6
2022-08-03T10:28:04.842Z,29.4
2022-08-03T10:38:05.218Z,29.2
2022-08-03T10:48:05.370Z,29.9
2022-08-03T10:58:10.834Z,29.6
2022-08-03T11:08:06.968Z,30
2022-08-03T11:18:07.243Z,30.4
2022-08-03T11:28:07.447Z,30.4
2022-08-03T11:48:08.990Z,31.3
2022-08-03T11:59:00.608Z,31.2
2022-08-03T12:08:09.486Z,30.9
2022-08-03T12:18:11.023Z,30.8
2022-08-03T12:28:30.395Z,31.7
2022-08-03T12:38:11.329Z,31.7
2022-08-03T12:48:11.714Z,31.4
2022-08-03T12:58:15.821Z,31.7
2022-08-03T13:08:12.849Z,31.9
2022-08-03T13:18:13.349Z,32.1
2022-08-03T13:28:14.384Z,32.5
2022-08-03T13:38:15.312Z,32.3
2022-08-03T13:48:15.277Z,32.5
2022-08-03T13:58:16.394Z,32.4
2022-08-03T14:08:16.991Z,32.3
2022-08-03T14:18:28.132Z,32.6
2022-08-03T14:28:17.809Z,32.9
2022-08-03T14:38:18.435Z,32.9
2022-08-03T14:50:10.704Z,32.7
2022-08-03T14:58:21.327Z,32.9
2022-08-03T15:08:20.527Z,32.6
2022-08-03T15:18:20.900Z,32.7
2022-08-03T15:28:21.518Z,32.6
2022-08-03T15:48:22.176Z,32.8
2022-08-03T15:58:58.789Z,32.2
2022-08-03T16:08:23.197Z,32.3
2022-08-03T16:18:23.738Z,32.6
2022-08-03T16:28:24.645Z,32.2
2022-08-03T16:38:25.570Z,31.8
2022-08-03T16:48:26.060Z,31.5
2022-08-03T16:58:35.071Z,31.4
2022-08-03T17:08:27.440Z,31.2
2022-08-03T17:28:42.810Z,31.1
2022-08-03T17:38:31.867Z,30.9
2022-08-03T17:48:29.763Z,30.7
2022-08-03T17:58:30.326Z,30.5
2022-08-03T18:08:31.353Z,30.3
2022-08-03T18:18:32.567Z,30
2022-08-03T18:38:33.343Z,29.3
2022-08-03T18:58:35.152Z,28.6
2022-08-03T19:08:35.312Z,28.4
2022-08-03T19:18:36.215Z,27.9
2022-08-03T19:28:36.770Z,27.4
2022-08-03T19:38:37.518Z,26.9
2022-08-03T19:48:38.345Z,26.6
2022-08-03T19:58:39.000Z,26.1
2022-08-03T20:08:39.129Z,26
2022-08-03T20:18:39.674Z,25.5
2022-08-03T20:28:49.586Z,25.2
2022-08-03T20:38:43.890Z,24.9
2022-08-03T20:48:42.282Z,24.7
2022-08-03T20:58:42.574Z,24.4
2022-08-03T21:18:43.819Z,23.7
2022-08-03T21:28:44.452Z,23.4
2022-08-03T21:38:47.541Z,23.2
2022-08-03T21:48:45.575Z,23
2022-08-03T21:58:45.982Z,22.9
2022-08-03T22:08:46.236Z,22.7
2022-08-03T22:18:46.473Z,22.7
2022-08-03T22:28:47.544Z,22.4
2022-08-03T22:38:48.371Z,22.2
2022-08-03T22:48:49.451Z,22
2022-08-03T22:58:50.000Z,21.9
2022-08-03T23:08:50.125Z,21.9
2022-08-03T23:28:51.235Z,21.7
2022-08-03T23:38:51.663Z,21.6
2022-08-03T23:58:52.735Z,21.6
